sensor_id;sensor_type;location;lat;lon;timestamp;pressure;altitude;pressure_sealevel;temperature;humidity
31162;BME280;17796;49.296;-117.656;2023-05-18T00:05:31;95700;;;29.76099;27.74037
31162;BME280;17796;49.296;-117.656;2023-05-18T00:20:35;95700;;;30.0056;27.83933
31162;BME280;17796;49.296;-117.656;2023-05-18T00:35:38;95700;;;30.05865;28.09276
31162;BME280;17796;49.296;-117.656;2023-05-18T00:50:42;95700;;;30.24258;28.57958
31162;BME280;17796;49.296;-117.656;2023-05-18T01:05:46;95700;;;30.40554;29.21572
31162;BME280;17796;49.296;-117.656;2023-05-18T01:20:54;95700;;;30.00814;29.36357
31162;BME280;17796;49.296;-117.656;2023-05-18T01:36:01;95700;;;29.61296;29.53474
31162;BME280;17796;49.296;-117.656;2023-05-18T01:51:05;95700;;;28.74859;31.33814
31162;BME280;17796;49.296;-117.656;2023-05-18T02:06:14;95700;;;29.22699;31.98934
31162;BME280;17796;49.296;-117.656;2023-05-18T02:21:18;95700;;;28.05354;35.10548
31162;BME280;17796;49.296;-117.656;2023-05-18T02:36:21;95700;;;27.86104;35.98618
31162;BME280;17796;49.296;-117.656;2023-05-18T02:51:25;95700;;;27.4916;38.17389
31162;BME280;17796;49.296;-117.656;2023-05-18T03:06:28;95700;;;26.40425;38.10029
31162;BME280;17796;49.296;-117.656;2023-05-18T03:21:32;95700;;;26.0129;39.62148
31162;BME280;17796;49.296;-117.656;2023-05-18T03:36:35;95700;;;24.75594;42.63488
31162;BME280;17796;49.296;-117.656;2023-05-18T03:51:39;95800;;;22.6509;50.27889
31162;BME280;17796;49.296;-117.656;2023-05-18T04:06:43;95800;;;23.30239;47.655
31162;BME280;17796;49.296;-117.656;2023-05-18T04:21:46;95800;;;22.06929;53.1089
31162;BME280;17796;49.296;-117.656;2023-05-18T04:36:50;95800;;;22.26242;50.81532
31162;BME280;17796;49.296;-117.656;2023-05-18T04:51:55;95800;;;21.61697;52.74965
31162;BME280;17796;49.296;-117.656;2023-05-18T05:06:58;95900;;;20.34166;57.9798
31162;BME280;17796;49.296;-117.656;2023-05-18T05:22:02;95900;;;20.33181;56.17174
31162;BME280;17796;49.296;-117.656;2023-05-18T05:37:06;95900;;;20.63357;53.07497
31162;BME280;17796;49.296;-117.656;2023-05-18T05:52:09;95900;;;19.0165;64.82976
31162;BME280;17796;49.296;-117.656;2023-05-18T06:07:13;95900;;;19.28426;61.61111
31162;BME280;17796;49.296;-117.656;2023-05-18T06:22:16;95900;;;18.73857;63.82419
31162;BME280;17796;49.296;-117.656;2023-05-18T06:37:20;96000;;;19.14387;58.75921
31162;BME280;17796;49.296;-117.656;2023-05-18T06:52:24;96000;;;18.61215;60.45628
31162;BME280;17796;49.296;-117.656;2023-05-18T07:07:27;96000;;;17.63291;67.37839
31162;BME280;17796;49.296;-117.656;2023-05-18T07:22:31;96000;;;16.58856;75.76622
31162;BME280;17796;49.296;-117.656;2023-05-18T07:37:35;96000;;;17.13011;70.40027
31162;BME280;17796;49.296;-117.656;2023-05-18T07:52:39;96100;;;16.90079;64.45596
31162;BME280;17796;49.296;-117.656;2023-05-18T08:07:43;96100;;;17.15552;64.69816
31162;BME280;17796;49.296;-117.656;2023-05-18T08:22:46;96100;;;16.69052;63.52692
31162;BME280;17796;49.296;-117.656;2023-05-18T08:37:50;96100;;;16.6632;63.39439
31162;BME280;17796;49.296;-117.656;2023-05-18T08:52:54;96100;;;16.72578;62.07513
31162;BME280;17796;49.296;-117.656;2023-05-18T09:08:01;96100;;;16.40879;62.57201
31162;BME280;17796;49.296;-117.656;2023-05-18T09:23:07;96100;;;15.75005;64.71043
31162;BME280;17796;49.296;-117.656;2023-05-18T09:38:12;96200;;;15.50167;71.20129
31162;BME280;17796;49.296;-117.656;2023-05-18T09:53:18;96200;;;15.68239;69.17694
31162;BME280;17796;49.296;-117.656;2023-05-18T10:08:22;96200;;;15.63634;69.32144
31162;BME280;17796;49.296;-117.656;2023-05-18T10:23:26;96200;;;14.26805;82.31383
31162;BME280;17796;49.296;-117.656;2023-05-18T10:38:32;96200;;;13.98093;89.52701
31162;BME280;17796;49.296;-117.656;2023-05-18T10:53:37;96200;;;14.42463;77.36948
31162;BME280;17796;49.296;-117.656;2023-05-18T11:08:42;96200;;;15.07193;70.2471
31162;BME280;17796;49.296;-117.656;2023-05-18T11:24:22;96200;;;14.61076;73.72301
31162;BME280;17796;49.296;-117.656;2023-05-18T11:39:27;96200;;;13.88088;76.27372
31162;BME280;17796;49.296;-117.656;2023-05-18T11:54:32;96300;;;14.30489;73.48458
31162;BME280;17796;49.296;-117.656;2023-05-18T12:09:40;96300;;;14.18261;75.59887
31162;BME280;17796;49.296;-117.656;2023-05-18T12:24:44;96300;;;13.40637;83.46186
31162;BME280;17796;49.296;-117.656;2023-05-18T12:39:50;96300;;;13.21834;90.61853
31162;BME280;17796;49.296;-117.656;2023-05-18T12:54:55;96300;;;13.95647;85.35733
31162;BME280;17796;49.296;-117.656;2023-05-18T13:10:00;96300;;;13.39017;97.75084
31162;BME280;17796;49.296;-117.656;2023-05-18T13:25:07;96400;;;13.87326;91.55381
31162;BME280;17796;49.296;-117.656;2023-05-18T13:40:11;96400;;;14.6025;82.12623
31162;BME280;17796;49.296;-117.656;2023-05-18T13:55:15;96400;;;14.01523;82.30622
31162;BME280;17796;49.296;-117.656;2023-05-18T14:10:19;96400;;;13.84753;83.46655
31162;BME280;17796;49.296;-117.656;2023-05-18T14:25:23;96400;;;14.46878;76.52611
31162;BME280;17796;49.296;-117.656;2023-05-18T14:40:27;96400;;;15.4715;69.08346
31162;BME280;17796;49.296;-117.656;2023-05-18T14:55:30;96400;;;15.5852;63.73491
31162;BME280;17796;49.296;-117.656;2023-05-18T15:10:34;96400;;;15.76053;62.72638
31162;BME280;17796;49.296;-117.656;2023-05-18T15:25:38;96400;;;17.52936;58.52033
31162;BME280;17796;49.296;-117.656;2023-05-18T15:40:42;96400;;;17.11328;59.74245
31162;BME280;17796;49.296;-117.656;2023-05-18T15:55:45;96400;;;18.6706;58.25227
31162;BME280;17796;49.296;-117.656;2023-05-18T16:10:49;96400;;;20.96359;53.79981
31162;BME280;17796;49.296;-117.656;2023-05-18T16:25:52;96400;;;20.92675;50.58321
31162;BME280;17796;49.296;-117.656;2023-05-18T16:40:56;96400;;;21.21675;50.53186
31162;BME280;17796;49.296;-117.656;2023-05-18T16:56:00;96400;;;20.58783;52.74496
31162;BME280;17796;49.296;-117.656;2023-05-18T17:11:04;96400;;;20.36802;56.70279
31162;BME280;17796;49.296;-117.656;2023-05-18T17:26:08;96300;;;22.4565;48.74436
31162;BME280;17796;49.296;-117.656;2023-05-18T17:41:12;96300;;;22.93328;50.67927
31162;BME280;17796;49.296;-117.656;2023-05-18T17:56:16;96300;;;23.33987;45.19042
31162;BME280;17796;49.296;-117.656;2023-05-18T18:11:20;96300;;;25.30929;42.42011
31162;BME280;17796;49.296;-117.656;2023-05-18T18:26:24;96300;;;26.70825;42.05916
31162;BME280;17796;49.296;-117.656;2023-05-18T18:41:28;96300;;;27.78321;36.2051
31162;BME280;17796;49.296;-117.656;2023-05-18T18:56:32;96200;;;27.36326;36.15738
31162;BME280;17796;49.296;-117.656;2023-05-18T19:11:36;96200;;;26.6444;39.98251
31162;BME280;17796;49.296;-117.656;2023-05-18T19:26:39;96200;;;26.70094;39.52451
31162;BME280;17796;49.296;-117.656;2023-05-18T19:41:43;96200;;;27.51224;36.09077
31162;BME280;17796;49.296;-117.656;2023-05-18T19:56:47;96200;;;29.43189;34.46344
31162;BME280;17796;49.296;-117.656;2023-05-18T20:11:51;96200;;;29.19618;34.46153
31162;BME280;17796;49.296;-117.656;2023-05-18T20:26:54;96200;;;30.17619;31.5411
31162;BME280;17796;49.296;-117.656;2023-05-18T20:41:58;96100;;;30.91096;28.37503
31162;BME280;17796;49.296;-117.656;2023-05-18T20:57:02;96100;;;31.09172;27.16223
31162;BME280;17796;49.296;-117.656;2023-05-18T21:12:06;96100;;;30.07898;26.4839
31162;BME280;17796;49.296;-117.656;2023-05-18T21:27:09;96100;;;31.2693;27.13245
31162;BME280;17796;49.296;-117.656;2023-05-18T21:42:13;96100;;;31.45736;24.79782
31162;BME280;17796;49.296;-117.656;2023-05-18T21:57:16;96100;;;32.29984;27.40154
31162;BME280;17796;49.296;-117.656;2023-05-18T22:12:20;96000;;;31.98534;25.21249
31162;BME280;17796;49.296;-117.656;2023-05-18T22:27:24;96000;;;30.45002;25.94814
31162;BME280;17796;49.296;-117.656;2023-05-18T22:42:27;96000;;;31.32267;23.72506
31162;BME280;17796;49.296;-117.656;2023-05-18T22:57:31;96000;;;31.14032;25.01254
31162;BME280;17796;49.296;-117.656;2023-05-18T23:12:34;96000;;;31.26644;24.75762
31162;BME280;17796;49.296;-117.656;2023-05-18T23:27:38;96000;;;31.82555;23.90699
31162;BME280;17796;49.296;-117.656;2023-05-18T23:42:42;96000;;;30.07707;26.21091
31162;BME280;17796;49.296;-117.656;2023-05-18T23:57:46;96000;;;30.47988;26.30355
